createdAt,value
2019-02-27T00:01:31.100Z,14.85
2019-02-27T00:04:02.369Z,13.68
2019-02-27T00:06:33.851Z,12.43
2019-02-27T00:09:05.785Z,12.20
2019-02-27T00:11:36.646Z,12.40
2019-02-27T00:14:07.183Z,11.38
2019-02-27T00:16:37.179Z,11.55
2019-02-27T00:19:07.451Z,11.43
2019-02-27T00:21:37.538Z,11.25
2019-02-27T00:24:07.755Z,10.28
2019-02-27T00:26:39.534Z,10.78
2019-02-27T00:29:09.356Z,10.88
2019-02-27T00:31:39.336Z,11.55
2019-02-27T00:34:09.271Z,10.45
2019-02-27T00:36:39.208Z,10.60
2019-02-27T00:39:09.229Z,10.78
2019-02-27T00:41:40.370Z,10.32
2019-02-27T00:44:10.882Z,9.60
2019-02-27T00:46:40.909Z,10.45
2019-02-27T00:49:10.917Z,10.15
2019-02-27T00:51:44.878Z,10.20
2019-02-27T00:54:14.414Z,10.10
2019-02-27T00:56:46.355Z,10.45
2019-02-27T00:59:17.270Z,10.70
2019-02-27T01:01:47.957Z,10.68
2019-02-27T01:04:17.923Z,10.93
2019-02-27T01:06:48.181Z,10.82
2019-02-27T01:09:18.283Z,10.10
2019-02-27T01:11:51.550Z,10.10
2019-02-27T01:14:19.998Z,10.38
2019-02-27T01:16:50.811Z,10.43
2019-02-27T01:19:20.866Z,10.43
2019-02-27T01:21:50.875Z,10.60
2019-02-27T01:24:20.799Z,9.73
2019-02-27T01:26:50.720Z,9.60
2019-02-27T01:29:20.656Z,10.30
2019-02-27T01:31:50.703Z,8.80
2019-02-27T01:34:20.706Z,9.98
2019-02-27T01:36:50.642Z,9.63
2019-02-27T01:39:20.565Z,9.33
2019-02-27T01:41:50.488Z,8.85
2019-02-27T01:44:20.554Z,10.05
2019-02-27T01:46:50.541Z,8.78
2019-02-27T01:49:20.474Z,8.95
2019-02-27T01:51:50.755Z,9.15
2019-02-27T01:54:21.412Z,8.60
2019-02-27T01:56:51.506Z,8.70
2019-02-27T01:59:21.431Z,8.38
2019-02-27T02:01:51.383Z,7.78
2019-02-27T02:04:21.399Z,8.08
2019-02-27T02:06:51.350Z,8.03
2019-02-27T02:09:38.213Z,7.72
2019-02-27T02:12:14.186Z,8.08
2019-02-27T02:15:01.803Z,8.75
2019-02-27T02:17:48.400Z,8.93
2019-02-27T02:20:41.115Z,8.68
2019-02-27T02:23:14.785Z,7.65
2019-02-27T02:26:03.126Z,8.30
2019-02-27T02:28:39.050Z,8.50
2019-02-27T02:31:41.186Z,8.98
2019-02-27T02:34:30.592Z,9.28
2019-02-27T02:37:06.510Z,8.45
2019-02-27T02:39:54.323Z,8.68
2019-02-27T02:42:35.133Z,10.32
2019-02-27T02:45:32.753Z,9.33
2019-02-27T02:48:34.394Z,9.78
2019-02-27T02:51:34.075Z,9.90
2019-02-27T02:54:19.332Z,10.75
2019-02-27T02:57:04.842Z,10.70
2019-02-27T02:59:59.891Z,9.75
2019-02-27T03:02:50.035Z,9.88
2019-02-27T03:05:49.621Z,9.05
2019-02-27T03:08:28.419Z,10.25
2019-02-27T03:11:19.805Z,8.90
2019-02-27T03:14:01.377Z,9.50
2019-02-27T03:16:48.767Z,9.50
2019-02-27T03:19:30.057Z,9.90
2019-02-27T03:22:05.494Z,9.85
2019-02-27T03:24:38.633Z,10.28
2019-02-27T03:27:20.873Z,10.03
2019-02-27T03:29:56.621Z,9.28
2019-02-27T03:32:43.296Z,9.70
2019-02-27T03:35:29.513Z,8.93
2019-02-27T03:38:23.818Z,9.43
2019-02-27T03:41:02.936Z,9.15
2019-02-27T03:43:45.651Z,9.65
2019-02-27T03:46:21.867Z,10.25
2019-02-27T03:49:14.608Z,10.05
2019-02-27T03:52:13.735Z,9.30
2019-02-27T03:55:04.696Z,10.35
2019-02-27T03:57:43.872Z,9.90
2019-02-27T04:00:45.781Z,9.83
2019-02-27T04:03:33.672Z,9.83
2019-02-27T04:06:21.574Z,10.10
2019-02-27T04:08:54.078Z,10.43
2019-02-27T04:11:24.360Z,10.55
2019-02-27T04:13:54.576Z,9.90
2019-02-27T04:16:28.939Z,10.68
2019-02-27T04:19:03.135Z,10.35
2019-02-27T04:21:28.545Z,10.13
2019-02-27T04:23:58.593Z,10.65
2019-02-27T04:26:28.517Z,10.03
2019-02-27T04:29:03.984Z,10.60
2019-02-27T04:31:30.754Z,10.55
2019-02-27T04:34:01.252Z,9.75
2019-02-27T04:36:31.501Z,10.65
2019-02-27T04:39:02.482Z,10.28
2019-02-27T04:41:34.819Z,10.88
2019-02-27T04:44:06.026Z,11.40
2019-02-27T04:46:36.248Z,10.15
2019-02-27T04:49:06.194Z,10.40
2019-02-27T04:51:36.130Z,11.43
2019-02-27T04:54:07.291Z,11.43
2019-02-27T04:56:38.786Z,11.53
2019-02-27T04:59:08.764Z,11.05
2019-02-27T05:01:39.588Z,11.57
2019-02-27T05:04:09.574Z,11.78
2019-02-27T05:06:39.791Z,13.05
2019-02-27T05:09:10.088Z,13.62
2019-02-27T05:11:40.053Z,14.43
2019-02-27T05:14:10.052Z,17.23
2019-02-27T05:16:39.993Z,18.20
2019-02-27T05:19:09.925Z,17.30
2019-02-27T05:21:39.864Z,17.75
2019-02-27T05:24:09.911Z,21.20
2019-02-27T05:26:39.874Z,19.73
2019-02-27T05:29:09.820Z,20.43
2019-02-27T05:31:39.812Z,19.25
2019-02-27T05:34:12.400Z,19.87
2019-02-27T05:36:41.495Z,20.90
2019-02-27T05:39:11.510Z,22.13
2019-02-27T05:41:41.534Z,21.17
2019-02-27T05:44:11.477Z,22.45
2019-02-27T05:46:41.502Z,20.88
2019-02-27T05:49:11.480Z,22.52
2019-02-27T05:51:41.736Z,23.57
2019-02-27T05:54:11.797Z,30.05
2019-02-27T05:56:41.755Z,31.30
2019-02-27T05:59:11.815Z,38.88
2019-02-27T06:01:41.840Z,45.80
2019-02-27T06:04:12.833Z,32.83
2019-02-27T06:06:44.990Z,30.27
2019-02-27T06:09:14.471Z,30.02
2019-02-27T06:11:44.449Z,29.90
2019-02-27T06:14:14.428Z,31.95
2019-02-27T06:16:44.445Z,29.35
2019-02-27T06:19:14.451Z,30.77
2019-02-27T06:21:44.563Z,33.42
2019-02-27T06:24:14.514Z,36.08
2019-02-27T06:26:45.542Z,34.60
2019-02-27T06:29:15.544Z,33.73
2019-02-27T06:31:45.552Z,32.63
2019-02-27T06:34:15.558Z,30.68
2019-02-27T06:36:45.708Z,31.48
2019-02-27T06:39:15.632Z,34.67
2019-02-27T06:41:47.437Z,31.15
2019-02-27T06:44:19.017Z,25.00
2019-02-27T06:46:51.190Z,32.98
2019-02-27T06:49:20.628Z,31.48
2019-02-27T06:51:50.663Z,25.08
2019-02-27T06:54:20.587Z,33.70
2019-02-27T06:56:50.520Z,29.95
2019-02-27T06:59:24.849Z,31.12
2019-02-27T07:01:52.207Z,31.97
2019-02-27T07:04:23.150Z,27.48
2019-02-27T07:06:55.519Z,28.60
2019-02-27T07:09:24.812Z,30.15
2019-02-27T07:11:54.787Z,26.52
2019-02-27T07:14:24.722Z,30.17
2019-02-27T07:16:56.911Z,27.77
2019-02-27T07:19:26.338Z,28.57
2019-02-27T07:21:56.284Z,37.83
2019-02-27T07:24:26.258Z,31.80
2019-02-27T07:26:56.184Z,24.77
2019-02-27T07:29:27.475Z,34.30
2019-02-27T07:31:57.872Z,30.90
2019-02-27T07:34:27.859Z,37.25
2019-02-27T07:36:57.912Z,32.42
2019-02-27T07:39:32.625Z,32.98
2019-02-27T07:42:00.012Z,28.07
2019-02-27T07:44:34.703Z,25.37
2019-02-27T07:47:01.623Z,25.08
2019-02-27T07:49:32.227Z,25.32
2019-02-27T07:52:03.497Z,27.67
2019-02-27T07:54:34.486Z,26.48
2019-02-27T07:57:04.485Z,26.25
2019-02-27T07:59:37.902Z,22.50
2019-02-27T08:02:06.175Z,26.70
2019-02-27T08:04:37.002Z,25.70
2019-02-27T08:07:07.009Z,25.30
2019-02-27T08:09:37.972Z,26.82
2019-02-27T08:12:07.930Z,25.02
2019-02-27T08:14:37.936Z,27.62
2019-02-27T08:17:17.326Z,30.35
2019-02-27T08:19:39.679Z,25.90
2019-02-27T08:22:09.625Z,28.10
2019-02-27T08:24:39.548Z,25.20
2019-02-27T08:27:09.821Z,26.80
2019-02-27T08:29:40.290Z,25.92
2019-02-27T08:32:10.241Z,21.48
2019-02-27T08:34:40.554Z,24.07
2019-02-27T08:37:10.495Z,24.23
2019-02-27T08:39:40.550Z,26.55
2019-02-27T08:42:10.696Z,24.67
2019-02-27T08:44:42.957Z,22.07
2019-02-27T08:47:12.263Z,21.17
2019-02-27T08:49:42.238Z,20.57
2019-02-27T08:52:13.048Z,19.40
2019-02-27T08:54:44.875Z,17.82
2019-02-27T08:57:15.926Z,21.35
2019-02-27T08:59:45.874Z,23.20
2019-02-27T09:02:15.811Z,23.83
2019-02-27T09:04:46.623Z,20.90
2019-02-27T09:07:16.579Z,22.75
2019-02-27T09:09:51.210Z,27.93
2019-02-27T09:12:19.184Z,31.52
2019-02-27T09:14:49.147Z,31.27
2019-02-27T09:17:19.078Z,26.17
2019-02-27T09:19:49.019Z,28.07
2019-02-27T09:22:18.951Z,31.62
2019-02-27T09:24:48.967Z,30.57
2019-02-27T09:27:18.932Z,32.48
2019-02-27T09:29:49.417Z,29.15
2019-02-27T09:32:20.566Z,26.05
2019-02-27T09:34:50.965Z,34.15
2019-02-27T09:37:21.147Z,30.70
2019-02-27T09:39:51.085Z,33.30
2019-02-27T09:42:21.015Z,34.35
2019-02-27T09:44:51.201Z,33.18
2019-02-27T09:47:23.140Z,37.30
2019-02-27T09:49:52.895Z,40.40
2019-02-27T09:52:23.746Z,37.55
2019-02-27T09:54:54.864Z,40.85
2019-02-27T09:57:24.966Z,41.30
2019-02-27T09:59:56.931Z,46.88
2019-02-27T10:02:26.871Z,40.43
2019-02-27T10:05:02.883Z,35.90
2019-02-27T10:07:31.397Z,42.30
2019-02-27T10:10:01.445Z,42.88
2019-02-27T10:12:32.644Z,46.88
2019-02-27T10:15:02.629Z,44.40
2019-02-27T10:17:32.578Z,41.28
2019-02-27T10:20:02.944Z,44.40
2019-02-27T10:22:33.017Z,36.63
2019-02-27T10:25:02.964Z,44.30
2019-02-27T10:27:34.011Z,41.45
2019-02-27T10:30:11.561Z,39.63
2019-02-27T10:32:37.487Z,44.20
2019-02-27T10:35:09.398Z,44.95
2019-02-27T10:37:39.693Z,40.45
2019-02-27T10:40:18.138Z,37.53
2019-02-27T10:42:50.332Z,40.25
2019-02-27T10:45:20.103Z,41.42
2019-02-27T10:47:50.044Z,40.80
2019-02-27T10:50:20.003Z,44.48
2019-02-27T10:52:50.256Z,39.42
2019-02-27T10:55:22.057Z,41.25
2019-02-27T10:57:52.408Z,40.58
2019-02-27T11:00:32.959Z,46.48
2019-02-27T11:03:03.135Z,46.25
2019-02-27T11:05:38.679Z,43.13
2019-02-27T11:08:08.651Z,42.13
2019-02-27T11:10:38.560Z,29.80
2019-02-27T11:13:08.536Z,29.02
2019-02-27T11:15:40.844Z,29.27
2019-02-27T11:18:10.197Z,22.27
2019-02-27T11:20:40.210Z,23.55
2019-02-27T11:23:10.158Z,25.00
2019-02-27T11:25:40.156Z,24.70
2019-02-27T11:28:10.158Z,26.90
2019-02-27T11:30:42.421Z,29.05
2019-02-27T11:33:24.839Z,28.12
2019-02-27T11:35:45.877Z,28.92
2019-02-27T11:38:16.952Z,28.50
2019-02-27T11:40:46.911Z,27.25
2019-02-27T11:43:17.293Z,25.60
2019-02-27T11:45:47.376Z,28.15
2019-02-27T11:48:17.299Z,26.17
2019-02-27T11:50:47.245Z,27.85
2019-02-27T11:53:17.201Z,20.77
2019-02-27T11:55:48.130Z,24.87
2019-02-27T11:58:18.201Z,25.35
2019-02-27T12:00:48.127Z,26.25
2019-02-27T12:03:18.079Z,24.98
2019-02-27T12:05:48.923Z,23.92
2019-02-27T12:08:18.911Z,24.47
2019-02-27T12:10:49.043Z,22.45
2019-02-27T12:13:18.991Z,23.00
2019-02-27T12:15:48.927Z,23.07
2019-02-27T12:18:18.927Z,20.32
2019-02-27T12:20:53.236Z,17.05
2019-02-27T12:23:20.616Z,22.20
2019-02-27T12:25:50.624Z,22.05
2019-02-27T12:28:20.628Z,21.17
2019-02-27T12:30:50.565Z,19.05
2019-02-27T12:33:20.572Z,21.12
2019-02-27T12:35:50.637Z,19.37
2019-02-27T12:38:20.639Z,15.75
2019-02-27T12:40:50.642Z,19.95
2019-02-27T12:43:20.767Z,21.15
2019-02-27T12:45:50.875Z,22.27
2019-02-27T12:48:20.858Z,18.75
2019-02-27T12:50:51.028Z,24.25
2019-02-27T12:53:21.789Z,20.92
2019-02-27T12:55:51.966Z,22.58
2019-02-27T12:58:24.394Z,22.42
2019-02-27T13:00:53.635Z,22.55
2019-02-27T13:03:23.667Z,22.93
2019-02-27T13:05:53.617Z,21.68
2019-02-27T13:08:24.471Z,22.73
2019-02-27T13:10:54.423Z,21.52
2019-02-27T13:13:25.871Z,21.95
2019-02-27T13:15:56.017Z,16.62
2019-02-27T13:18:25.939Z,23.77
2019-02-27T13:20:55.904Z,18.80
2019-02-27T13:23:26.071Z,24.80
2019-02-27T13:25:57.457Z,23.73
2019-02-27T13:28:27.700Z,22.75
2019-02-27T13:30:57.832Z,19.20
2019-02-27T13:33:28.183Z,22.87
2019-02-27T13:35:59.664Z,24.05
2019-02-27T13:38:29.795Z,22.13
2019-02-27T13:40:59.722Z,27.42
2019-02-27T13:43:29.717Z,24.45
2019-02-27T13:45:59.746Z,26.62
2019-02-27T13:48:29.905Z,25.00
2019-02-27T13:51:02.399Z,24.70
2019-02-27T13:53:31.525Z,29.35
2019-02-27T13:56:01.464Z,23.15
2019-02-27T13:58:35.538Z,31.12
2019-02-27T14:01:03.164Z,33.15
2019-02-27T14:03:33.068Z,30.65
2019-02-27T14:06:02.992Z,31.73
2019-02-27T14:08:33.719Z,31.00
2019-02-27T14:11:04.907Z,32.83
2019-02-27T14:13:34.970Z,31.25
2019-02-27T14:16:06.009Z,32.33
2019-02-27T14:18:37.733Z,31.97
2019-02-27T14:21:07.779Z,34.63
2019-02-27T14:23:37.695Z,32.70
2019-02-27T14:26:09.080Z,32.05
2019-02-27T14:28:39.324Z,31.95
2019-02-27T14:31:09.987Z,30.70
2019-02-27T14:33:40.085Z,33.85
2019-02-27T14:36:10.030Z,33.65
2019-02-27T14:38:39.986Z,27.98
2019-02-27T14:41:11.164Z,27.20
2019-02-27T14:43:41.611Z,29.87
2019-02-27T14:46:12.266Z,31.30
2019-02-27T14:48:42.343Z,31.25
2019-02-27T14:51:12.268Z,34.03
2019-02-27T14:53:42.233Z,31.55
2019-02-27T14:56:12.252Z,26.85
2019-02-27T14:58:42.245Z,31.85
2019-02-27T15:01:14.458Z,32.78
2019-02-27T15:03:44.299Z,36.20
2019-02-27T15:06:15.912Z,35.05
2019-02-27T15:08:55.330Z,33.98
2019-02-27T15:11:18.397Z,33.02
2019-02-27T15:13:48.514Z,33.13
2019-02-27T15:16:18.476Z,31.17
2019-02-27T15:18:48.634Z,31.10
2019-02-27T15:21:18.590Z,33.30
2019-02-27T15:23:48.547Z,32.08
2019-02-27T15:26:18.522Z,34.33
2019-02-27T15:28:48.517Z,35.25
2019-02-27T15:31:21.301Z,32.78
2019-02-27T15:33:50.214Z,35.05
2019-02-27T15:36:20.179Z,35.90
2019-02-27T15:38:50.126Z,26.77
2019-02-27T15:41:20.073Z,32.45
2019-02-27T15:43:59.667Z,30.40
2019-02-27T15:46:22.547Z,26.10
2019-02-27T15:48:52.616Z,21.27
2019-02-27T15:51:22.927Z,29.48
2019-02-27T15:53:53.002Z,27.77
2019-02-27T15:56:22.941Z,24.87
2019-02-27T15:58:52.940Z,26.90
2019-02-27T16:01:24.745Z,20.23
2019-02-27T16:03:54.991Z,26.05
2019-02-27T16:06:25.606Z,21.05
2019-02-27T16:08:58.274Z,24.55
2019-02-27T16:11:27.604Z,21.23
2019-02-27T16:13:57.855Z,19.07
2019-02-27T16:16:28.030Z,20.57
2019-02-27T16:18:58.071Z,22.05
2019-02-27T16:21:29.144Z,22.58
2019-02-27T16:23:59.457Z,21.85
2019-02-27T16:26:29.575Z,22.98
2019-02-27T16:28:59.665Z,21.27
2019-02-27T16:31:30.053Z,20.70
2019-02-27T16:34:00.032Z,21.15
2019-02-27T16:36:36.279Z,20.17
2019-02-27T16:39:06.967Z,21.57
2019-02-27T16:41:35.003Z,17.50
2019-02-27T16:44:05.186Z,20.32
2019-02-27T16:46:35.188Z,20.95
2019-02-27T16:49:09.695Z,21.65
2019-02-27T16:51:36.780Z,18.00
2019-02-27T16:54:06.847Z,21.93
2019-02-27T16:56:36.887Z,20.25
2019-02-27T16:59:08.100Z,22.85
2019-02-27T17:01:38.506Z,22.32
2019-02-27T17:04:08.478Z,20.88
2019-02-27T17:06:38.404Z,20.88
2019-02-27T17:09:10.116Z,21.25
2019-02-27T17:11:40.163Z,20.72
2019-02-27T17:14:10.220Z,20.45
2019-02-27T17:16:44.351Z,22.67
2019-02-27T17:19:12.842Z,23.95
2019-02-27T17:21:42.949Z,23.40
2019-02-27T17:24:12.964Z,23.35
2019-02-27T17:26:43.037Z,20.50
2019-02-27T17:29:13.841Z,23.73
2019-02-27T17:31:49.404Z,23.73
2019-02-27T17:34:15.791Z,24.35
2019-02-27T17:36:46.321Z,24.45
2019-02-27T17:39:16.600Z,22.48
2019-02-27T17:41:46.538Z,24.05
2019-02-27T17:44:16.660Z,23.20
2019-02-27T17:46:46.878Z,24.85
2019-02-27T17:49:17.900Z,25.85
2019-02-27T17:51:49.545Z,25.32
2019-02-27T17:54:19.713Z,23.12
2019-02-27T17:56:50.720Z,24.65
2019-02-27T17:59:20.845Z,25.10
2019-02-27T18:01:50.874Z,25.68
2019-02-27T18:04:20.928Z,25.25
2019-02-27T18:06:50.862Z,24.92
2019-02-27T18:09:23.427Z,27.20
2019-02-27T18:11:53.261Z,23.22
2019-02-27T18:14:24.961Z,23.85
2019-02-27T18:16:59.195Z,24.80
2019-02-27T18:19:29.348Z,25.55
2019-02-27T18:21:59.458Z,24.92
2019-02-27T18:24:33.348Z,22.62
2019-02-27T18:27:02.232Z,27.37
2019-02-27T18:29:33.405Z,26.77
2019-02-27T18:32:06.338Z,24.02
2019-02-27T18:34:35.096Z,24.20
2019-02-27T18:37:06.377Z,24.07
2019-02-27T18:39:37.243Z,22.05
2019-02-27T18:42:07.336Z,24.90
2019-02-27T18:44:38.309Z,23.25
2019-02-27T18:47:08.952Z,24.92
2019-02-27T18:49:38.912Z,24.27
2019-02-27T18:52:08.952Z,25.08
2019-02-27T18:54:40.714Z,24.23
2019-02-27T18:57:11.910Z,22.13
2019-02-27T18:59:42.824Z,21.82
2019-02-27T19:02:12.876Z,17.37
2019-02-27T19:04:42.906Z,23.75
2019-02-27T19:07:12.899Z,23.52
2019-02-27T19:09:42.908Z,24.27
2019-02-27T19:12:12.859Z,25.75
2019-02-27T19:14:42.909Z,22.37
2019-02-27T19:17:13.715Z,26.90
2019-02-27T19:19:48.158Z,25.60
2019-02-27T19:22:15.374Z,28.27
2019-02-27T19:24:45.391Z,27.17
2019-02-27T19:27:18.385Z,29.32
2019-02-27T19:29:47.391Z,31.30
2019-02-27T19:32:17.375Z,27.73
2019-02-27T19:34:48.162Z,30.68
2019-02-27T19:37:18.317Z,29.02
2019-02-27T19:39:48.243Z,31.17
2019-02-27T19:42:18.608Z,31.40
2019-02-27T19:44:48.604Z,31.82
2019-02-27T19:47:19.081Z,32.83
2019-02-27T19:49:49.170Z,29.98
2019-02-27T19:52:19.123Z,32.60
2019-02-27T19:54:51.604Z,33.45
2019-02-27T19:57:20.908Z,34.08
2019-02-27T19:59:51.049Z,31.40
2019-02-27T20:02:21.619Z,33.98
2019-02-27T20:04:53.364Z,34.92
2019-02-27T20:07:23.324Z,32.55
2019-02-27T20:09:54.356Z,34.18
2019-02-27T20:12:24.995Z,27.98
2019-02-27T20:14:54.984Z,35.33
2019-02-27T20:17:26.651Z,38.53
2019-02-27T20:20:00.500Z,39.42
2019-02-27T20:22:29.654Z,35.68
2019-02-27T20:24:59.605Z,37.48
2019-02-27T20:27:29.787Z,35.60
2019-02-27T20:29:59.861Z,37.50
2019-02-27T20:32:29.973Z,37.60
2019-02-27T20:34:59.943Z,40.38
2019-02-27T20:37:30.092Z,38.30
2019-02-27T20:40:00.258Z,40.40
2019-02-27T20:42:30.264Z,40.23
2019-02-27T20:45:00.278Z,37.05
2019-02-27T20:47:30.752Z,39.08
2019-02-27T20:50:01.076Z,43.65
2019-02-27T20:52:31.502Z,42.15
2019-02-27T20:55:01.487Z,40.10
2019-02-27T20:57:32.737Z,41.18
2019-02-27T21:00:02.924Z,43.50
2019-02-27T21:02:34.097Z,33.10
2019-02-27T21:05:06.775Z,41.90
2019-02-27T21:07:36.168Z,40.58
2019-02-27T21:10:09.309Z,41.92
2019-02-27T21:12:40.792Z,42.58
2019-02-27T21:15:13.833Z,42.05
2019-02-27T21:17:44.564Z,39.18
2019-02-27T21:20:16.542Z,41.73
2019-02-27T21:22:46.249Z,38.15
2019-02-27T21:25:16.323Z,38.55
2019-02-27T21:27:46.455Z,40.40
2019-02-27T21:30:19.077Z,33.92
2019-02-27T21:32:49.141Z,37.40
2019-02-27T21:35:19.088Z,35.83
2019-02-27T21:37:50.957Z,33.45
2019-02-27T21:40:20.974Z,36.40
2019-02-27T21:42:51.890Z,33.60
2019-02-27T21:45:25.246Z,30.62
2019-02-27T21:47:55.251Z,33.25
2019-02-27T21:50:25.859Z,33.60
2019-02-27T21:52:55.928Z,28.52
2019-02-27T21:55:26.006Z,36.42
2019-02-27T21:57:58.016Z,38.13
2019-02-27T22:00:29.930Z,34.13
2019-02-27T22:03:03.654Z,37.30
2019-02-27T22:05:31.847Z,38.63
2019-02-27T22:08:01.800Z,38.83
2019-02-27T22:10:33.424Z,39.48
2019-02-27T22:13:09.358Z,34.80
2019-02-27T22:15:35.117Z,29.20
2019-02-27T22:18:08.365Z,32.67
2019-02-27T22:20:37.613Z,36.03
2019-02-27T22:23:07.547Z,32.78
2019-02-27T22:25:37.594Z,34.70
2019-02-27T22:28:07.563Z,36.28
2019-02-27T22:30:37.482Z,30.95
2019-02-27T22:33:07.436Z,39.45
2019-02-27T22:35:38.538Z,36.83
2019-02-27T22:38:08.797Z,34.48
2019-02-27T22:40:39.196Z,37.78
2019-02-27T22:43:09.614Z,39.20
2019-02-27T22:45:43.852Z,37.63
2019-02-27T22:48:12.299Z,42.58
2019-02-27T22:50:42.661Z,40.65
2019-02-27T22:53:12.649Z,40.45
2019-02-27T22:55:43.150Z,43.73
2019-02-27T22:58:13.399Z,40.43
2019-02-27T23:00:56.015Z,36.93
2019-02-27T23:03:38.518Z,40.80
2019-02-27T23:06:12.108Z,39.75
2019-02-27T23:08:41.845Z,35.90
2019-02-27T23:11:12.302Z,38.38
2019-02-27T23:13:47.485Z,34.73
2019-02-27T23:16:18.824Z,36.28
2019-02-27T23:18:49.559Z,33.60
2019-02-27T23:21:19.574Z,32.98
2019-02-27T23:23:49.525Z,30.50
2019-02-27T23:26:20.196Z,33.28
2019-02-27T23:28:51.093Z,33.78
2019-02-27T23:31:23.337Z,34.58
2019-02-27T23:33:52.808Z,36.35
2019-02-27T23:36:22.865Z,35.38
2019-02-27T23:38:53.087Z,31.02
2019-02-27T23:41:23.855Z,35.40
2019-02-27T23:43:54.959Z,35.52
2019-02-27T23:46:25.214Z,33.55
2019-02-27T23:48:55.870Z,31.95
2019-02-27T23:51:26.728Z,31.30
2019-02-27T23:53:58.583Z,31.82
2019-02-27T23:56:28.459Z,29.37
2019-02-27T23:59:02.343Z,29.70
